createdAt,value
2024-03-24T00:00:34.077Z,442.00
2024-03-24T00:01:34.217Z,446.00
2024-03-24T00:02:34.408Z,445.00
2024-03-24T00:03:34.585Z,448.00
2024-03-24T00:04:34.790Z,448.00
2024-03-24T00:05:34.965Z,447.00
2024-03-24T00:06:35.115Z,449.00
2024-03-24T00:07:35.272Z,449.00
2024-03-24T00:08:35.427Z,451.00
2024-03-24T00:09:35.598Z,447.00
2024-03-24T00:10:35.792Z,447.00
2024-03-24T00:11:35.971Z,455.00
2024-03-24T00:12:36.193Z,458.00
2024-03-24T00:13:36.349Z,455.00
2024-03-24T00:14:36.479Z,455.00
2024-03-24T00:15:36.627Z,455.00
2024-03-24T00:16:36.805Z,455.00
2024-03-24T00:17:37.041Z,452.00
2024-03-24T00:18:37.143Z,442.00
2024-03-24T00:19:37.299Z,448.00
2024-03-24T00:20:37.477Z,449.00
2024-03-24T00:21:37.634Z,450.00
2024-03-24T00:22:37.796Z,451.00
2024-03-24T00:23:37.932Z,451.00
2024-03-24T00:24:38.118Z,451.00
2024-03-24T00:25:38.325Z,458.00
2024-03-24T00:26:38.521Z,452.00
2024-03-24T00:27:38.770Z,451.00
2024-03-24T00:28:38.913Z,451.00
2024-03-24T00:29:39.099Z,451.00
2024-03-24T00:30:39.285Z,452.00
2024-03-24T00:31:39.444Z,451.00
2024-03-24T00:32:39.631Z,458.00
2024-03-24T00:33:39.821Z,459.00
2024-03-24T00:34:39.999Z,457.00
2024-03-24T00:35:40.186Z,454.00
2024-03-24T00:36:40.338Z,452.00
2024-03-24T00:37:40.558Z,447.00
2024-03-24T00:38:40.715Z,446.00
2024-03-24T00:39:43.361Z,444.00
2024-03-24T00:40:41.036Z,446.00
2024-03-24T00:41:41.209Z,449.00
2024-03-24T00:42:41.357Z,449.00
2024-03-24T00:43:41.471Z,447.00
2024-03-24T00:44:42.687Z,444.00
2024-03-24T00:45:41.751Z,445.00
2024-03-24T00:46:41.899Z,447.00
2024-03-24T00:47:42.058Z,446.00
2024-03-24T00:48:42.169Z,443.00
2024-03-24T00:49:42.320Z,446.00
2024-03-24T00:50:42.468Z,445.00
2024-03-24T00:51:42.598Z,442.00
2024-03-24T00:52:42.761Z,444.00
2024-03-24T00:53:42.877Z,437.00
2024-03-24T00:54:43.027Z,438.00
2024-03-24T00:55:43.187Z,440.00
2024-03-24T00:56:43.354Z,447.00
2024-03-24T00:57:43.457Z,444.00
2024-03-24T00:58:43.604Z,444.00
2024-03-24T00:59:43.767Z,444.00
2024-03-24T01:00:43.889Z,446.00
2024-03-24T01:01:44.041Z,444.00
2024-03-24T01:02:44.172Z,444.00
2024-03-24T01:03:44.315Z,448.00
2024-03-24T01:04:44.468Z,450.00
2024-03-24T01:05:44.633Z,449.00
2024-03-24T01:06:44.776Z,447.00
2024-03-24T01:07:44.963Z,445.00
2024-03-24T01:08:45.097Z,450.00
2024-03-24T01:09:45.314Z,451.00
2024-03-24T01:10:45.491Z,446.00
2024-03-24T01:11:45.707Z,449.00
2024-03-24T01:12:45.917Z,450.00
2024-03-24T01:13:46.126Z,449.00
2024-03-24T01:14:46.346Z,449.00
2024-03-24T01:15:46.557Z,449.00
2024-03-24T01:16:46.709Z,453.00
2024-03-24T01:17:46.933Z,449.00
2024-03-24T01:18:47.091Z,451.00
2024-03-24T01:19:47.246Z,447.00
2024-03-24T01:20:47.422Z,448.00
2024-03-24T01:21:47.586Z,453.00
2024-03-24T01:22:47.798Z,454.00
2024-03-24T01:23:47.982Z,450.00
2024-03-24T01:24:48.148Z,449.00
2024-03-24T01:25:48.359Z,450.00
2024-03-24T01:26:48.573Z,453.00
2024-03-24T01:27:48.766Z,456.00
2024-03-24T01:28:48.961Z,464.00
2024-03-24T01:29:49.174Z,471.00
2024-03-24T01:30:49.423Z,468.00
2024-03-24T01:31:49.640Z,467.00
2024-03-24T01:32:49.845Z,464.00
2024-03-24T01:33:50.065Z,466.00
2024-03-24T01:34:50.290Z,460.00
2024-03-24T01:35:50.427Z,460.00
2024-03-24T01:36:50.635Z,461.00
2024-03-24T01:37:50.849Z,461.00
2024-03-24T01:38:51.014Z,457.00
2024-03-24T01:39:51.240Z,457.00
2024-03-24T01:40:51.453Z,460.00
2024-03-24T01:41:51.592Z,459.00
2024-03-24T01:42:51.808Z,457.00
2024-03-24T01:43:52.007Z,460.00
2024-03-24T01:44:52.235Z,464.00
2024-03-24T01:45:52.443Z,458.00
2024-03-24T01:46:52.666Z,457.00
2024-03-24T01:47:52.873Z,458.00
2024-03-24T01:48:53.056Z,454.00
2024-03-24T01:49:53.285Z,456.00
2024-03-24T01:50:53.469Z,458.00
2024-03-24T01:51:53.665Z,455.00
2024-03-24T01:52:53.925Z,457.00
2024-03-24T01:53:54.198Z,456.00
2024-03-24T01:54:54.370Z,458.00
2024-03-24T01:55:54.558Z,459.00
2024-03-24T01:56:54.730Z,456.00
2024-03-24T01:57:54.999Z,456.00
2024-03-24T01:58:55.099Z,459.00
2024-03-24T01:59:55.258Z,460.00
2024-03-24T02:00:55.476Z,460.00
2024-03-24T02:01:55.628Z,461.00
2024-03-24T02:02:55.810Z,460.00
2024-03-24T02:03:56.002Z,459.00
2024-03-24T02:04:56.179Z,458.00
2024-03-24T02:05:56.402Z,457.00
2024-03-24T02:06:56.669Z,458.00
2024-03-24T02:07:56.826Z,456.00
2024-03-24T02:08:57.023Z,457.00
2024-03-24T02:09:57.244Z,457.00
2024-03-24T02:10:57.421Z,458.00
2024-03-24T02:11:57.607Z,457.00
2024-03-24T02:12:57.809Z,459.00
2024-03-24T02:13:58.030Z,455.00
2024-03-24T02:14:58.273Z,456.00
2024-03-24T02:15:58.485Z,456.00
2024-03-24T02:16:58.699Z,458.00
2024-03-24T02:18:00.662Z,459.00
2024-03-24T02:18:59.087Z,456.00
2024-03-24T02:19:59.238Z,457.00
2024-03-24T02:20:59.441Z,452.00
2024-03-24T02:21:59.673Z,454.00
2024-03-24T02:22:59.941Z,459.00
2024-03-24T02:23:59.957Z,456.00
2024-03-24T02:25:00.214Z,462.00
2024-03-24T02:26:00.315Z,460.00
2024-03-24T02:27:00.529Z,458.00
2024-03-24T02:28:00.748Z,465.00
2024-03-24T02:29:00.896Z,464.00
2024-03-24T02:30:01.149Z,462.00
2024-03-24T02:31:01.318Z,464.00
2024-03-24T02:32:01.478Z,457.00
2024-03-24T02:33:01.723Z,460.00
2024-03-24T02:34:01.881Z,459.00
2024-03-24T02:35:02.060Z,462.00
2024-03-24T02:36:02.315Z,457.00
2024-03-24T02:37:02.424Z,455.00
2024-03-24T02:38:02.612Z,456.00
2024-03-24T02:39:02.761Z,453.00
2024-03-24T02:40:02.950Z,462.00
2024-03-24T02:41:03.132Z,458.00
2024-03-24T02:42:03.340Z,457.00
2024-03-24T02:43:03.496Z,460.00
2024-03-24T02:44:03.688Z,460.00
2024-03-24T02:45:03.871Z,461.00
2024-03-24T02:46:04.080Z,461.00
2024-03-24T02:47:04.310Z,464.00
2024-03-24T02:48:04.443Z,464.00
2024-03-24T02:49:04.619Z,466.00
2024-03-24T02:50:04.781Z,466.00
2024-03-24T02:51:05.011Z,465.00
2024-03-24T02:52:05.177Z,463.00
2024-03-24T02:53:05.331Z,465.00
2024-03-24T02:54:05.487Z,463.00
2024-03-24T02:55:05.673Z,462.00
2024-03-24T02:56:05.839Z,469.00
2024-03-24T02:57:06.023Z,464.00
2024-03-24T02:58:07.300Z,461.00
2024-03-24T02:59:06.368Z,461.00
2024-03-24T03:00:07.461Z,465.00
2024-03-24T03:01:06.746Z,469.00
2024-03-24T03:02:06.909Z,462.00
2024-03-24T03:03:07.119Z,458.00
2024-03-24T03:04:07.295Z,458.00
2024-03-24T03:05:07.504Z,459.00
2024-03-24T03:06:07.714Z,460.00
2024-03-24T03:07:08.019Z,462.00
2024-03-24T03:08:08.165Z,462.00
2024-03-24T03:09:08.340Z,460.00
2024-03-24T03:10:10.328Z,459.00
2024-03-24T03:11:08.698Z,457.00
2024-03-24T03:12:08.871Z,459.00
2024-03-24T03:13:09.044Z,454.00
2024-03-24T03:14:09.199Z,459.00
2024-03-24T03:15:09.341Z,454.00
2024-03-24T03:16:09.529Z,459.00
2024-03-24T03:17:09.651Z,460.00
2024-03-24T03:18:09.827Z,464.00
2024-03-24T03:19:10.004Z,464.00
2024-03-24T03:20:10.139Z,463.00
2024-03-24T03:21:10.322Z,466.00
2024-03-24T03:22:10.571Z,465.00
2024-03-24T03:23:10.737Z,465.00
2024-03-24T03:24:10.938Z,468.00
2024-03-24T03:25:11.136Z,467.00
2024-03-24T03:26:11.335Z,465.00
2024-03-24T03:27:11.500Z,468.00
2024-03-24T03:28:11.674Z,467.00
2024-03-24T03:29:11.854Z,465.00
2024-03-24T03:30:12.000Z,470.00
2024-03-24T03:31:12.193Z,465.00
2024-03-24T03:32:12.341Z,464.00
2024-03-24T03:33:12.588Z,463.00
2024-03-24T03:34:12.767Z,454.00
2024-03-24T03:35:12.928Z,464.00
2024-03-24T03:36:13.126Z,466.00
2024-03-24T03:37:13.385Z,464.00
2024-03-24T03:38:13.564Z,467.00
2024-03-24T03:39:13.774Z,464.00
2024-03-24T03:40:14.061Z,464.00
2024-03-24T03:41:14.250Z,462.00
2024-03-24T03:42:14.461Z,461.00
2024-03-24T03:43:14.639Z,462.00
2024-03-24T03:44:14.830Z,463.00
2024-03-24T03:45:15.039Z,463.00
2024-03-24T03:46:15.364Z,459.00
2024-03-24T03:47:15.441Z,463.00
2024-03-24T03:48:15.681Z,459.00
2024-03-24T03:49:15.891Z,455.00
2024-03-24T03:50:16.051Z,454.00
2024-03-24T03:51:16.270Z,453.00
2024-03-24T03:52:16.488Z,454.00
2024-03-24T03:53:16.689Z,455.00
2024-03-24T03:54:16.891Z,456.00
2024-03-24T03:55:17.103Z,456.00
2024-03-24T03:56:17.259Z,457.00
2024-03-24T03:57:17.458Z,456.00
2024-03-24T03:58:17.678Z,454.00
2024-03-24T03:59:17.871Z,448.00
2024-03-24T04:00:18.053Z,450.00
2024-03-24T04:01:18.258Z,452.00
2024-03-24T04:02:18.472Z,459.00
2024-03-24T04:03:18.724Z,463.00
2024-03-24T04:04:18.867Z,463.00
2024-03-24T04:05:19.106Z,463.00
2024-03-24T04:06:19.287Z,464.00
2024-03-24T04:07:19.511Z,464.00
2024-03-24T04:08:19.656Z,460.00
2024-03-24T04:09:19.853Z,461.00
2024-03-24T04:10:20.031Z,461.00
2024-03-24T04:11:20.216Z,466.00
2024-03-24T04:12:20.410Z,466.00
2024-03-24T04:13:20.593Z,460.00
2024-03-24T04:14:20.827Z,460.00
2024-03-24T04:15:21.033Z,460.00
2024-03-24T04:16:21.253Z,462.00
2024-03-24T04:17:21.476Z,464.00
2024-03-24T04:18:21.660Z,465.00
2024-03-24T04:19:21.858Z,467.00
2024-03-24T04:20:22.032Z,471.00
2024-03-24T04:21:22.203Z,466.00
2024-03-24T04:22:22.428Z,467.00
2024-03-24T04:23:22.605Z,467.00
2024-03-24T04:24:22.801Z,470.00
2024-03-24T04:25:23.018Z,463.00
2024-03-24T04:26:23.195Z,461.00
2024-03-24T04:27:23.404Z,459.00
2024-03-24T04:28:23.618Z,457.00
2024-03-24T04:29:23.832Z,459.00
2024-03-24T04:30:24.016Z,460.00
2024-03-24T04:31:24.258Z,467.00
2024-03-24T04:32:24.454Z,465.00
2024-03-24T04:33:24.648Z,467.00
2024-03-24T04:34:24.788Z,462.00
2024-03-24T04:35:24.984Z,463.00
2024-03-24T04:36:25.202Z,459.00
2024-03-24T04:37:25.428Z,464.00
2024-03-24T04:38:25.712Z,462.00
2024-03-24T04:39:25.836Z,463.00
2024-03-24T04:40:26.023Z,462.00
2024-03-24T04:41:26.202Z,460.00
2024-03-24T04:42:26.376Z,461.00
2024-03-24T04:43:26.530Z,460.00
2024-03-24T04:44:26.694Z,458.00
2024-03-24T04:45:26.886Z,462.00
2024-03-24T04:46:27.062Z,465.00
2024-03-24T04:47:27.315Z,468.00
2024-03-24T04:48:27.514Z,464.00
2024-03-24T04:49:27.586Z,459.00
2024-03-24T04:50:27.762Z,461.00
2024-03-24T04:51:27.947Z,459.00
2024-03-24T04:52:28.195Z,460.00
2024-03-24T04:53:28.366Z,461.00
2024-03-24T04:54:28.598Z,465.00
2024-03-24T04:55:28.863Z,464.00
2024-03-24T04:56:29.080Z,464.00
2024-03-24T04:57:29.323Z,462.00
2024-03-24T04:58:29.560Z,466.00
2024-03-24T04:59:29.761Z,468.00
2024-03-24T05:00:30.106Z,471.00
2024-03-24T05:01:30.172Z,470.00
2024-03-24T05:02:30.303Z,470.00
2024-03-24T05:03:30.504Z,470.00
2024-03-24T05:04:30.701Z,471.00
2024-03-24T05:05:30.882Z,470.00
2024-03-24T05:06:31.094Z,468.00
2024-03-24T05:07:31.307Z,467.00
2024-03-24T05:08:31.535Z,469.00
2024-03-24T05:09:31.720Z,468.00
2024-03-24T05:10:31.930Z,469.00
2024-03-24T05:11:32.188Z,467.00
2024-03-24T05:12:32.417Z,468.00
2024-03-24T05:13:32.622Z,465.00
2024-03-24T05:14:32.846Z,463.00
2024-03-24T05:15:33.056Z,467.00
2024-03-24T05:16:33.242Z,462.00
2024-03-24T05:17:40.795Z,440.00
2024-03-24T05:18:40.804Z,443.00
2024-03-24T05:19:40.807Z,448.00
2024-03-24T05:20:40.855Z,447.00
2024-03-24T05:21:40.854Z,447.00
2024-03-24T05:22:40.876Z,446.00
2024-03-24T05:23:40.935Z,447.00
2024-03-24T05:24:40.940Z,466.00
2024-03-24T05:25:40.944Z,449.00
2024-03-24T05:26:40.964Z,452.00
2024-03-24T05:27:40.982Z,447.00
2024-03-24T05:28:50.214Z,446.00
2024-03-24T05:29:42.052Z,452.00
2024-03-24T05:30:41.038Z,452.00
2024-03-24T05:31:41.089Z,454.00
2024-03-24T05:32:41.103Z,453.00
2024-03-24T05:33:41.118Z,455.00
2024-03-24T05:34:41.117Z,459.00
2024-03-24T05:35:41.139Z,463.00
2024-03-24T05:36:41.141Z,462.00
2024-03-24T05:37:41.197Z,461.00
2024-03-24T05:38:41.214Z,461.00
2024-03-24T05:39:41.226Z,460.00
2024-03-24T05:40:41.266Z,453.00
2024-03-24T05:41:41.283Z,450.00
2024-03-24T05:42:41.309Z,451.00
2024-03-24T05:43:41.337Z,452.00
2024-03-24T05:44:41.409Z,453.00
2024-03-24T05:45:41.506Z,451.00
2024-03-24T05:46:41.545Z,449.00
2024-03-24T05:47:41.620Z,452.00
2024-03-24T05:48:41.685Z,454.00
2024-03-24T05:49:41.738Z,454.00
2024-03-24T05:50:41.780Z,453.00
2024-03-24T05:51:41.856Z,453.00
2024-03-24T05:52:41.919Z,453.00
2024-03-24T05:53:41.987Z,457.00
2024-03-24T05:54:42.027Z,459.00
2024-03-24T05:55:42.074Z,455.00
2024-03-24T05:56:42.101Z,453.00
2024-03-24T05:57:42.140Z,452.00
2024-03-24T05:58:42.198Z,448.00
2024-03-24T05:59:42.229Z,454.00
2024-03-24T06:00:42.333Z,455.00
2024-03-24T06:01:44.701Z,455.00
2024-03-24T06:02:42.416Z,460.00
2024-03-24T06:03:42.447Z,457.00
2024-03-24T06:04:42.458Z,458.00
2024-03-24T06:05:42.457Z,456.00
2024-03-24T06:06:42.529Z,456.00
2024-03-24T06:07:42.505Z,455.00
2024-03-24T06:08:42.523Z,456.00
2024-03-24T06:09:42.548Z,456.00
2024-03-24T06:10:42.559Z,453.00
2024-03-24T06:11:42.561Z,450.00
2024-03-24T06:12:42.563Z,451.00
2024-03-24T06:13:42.572Z,458.00
2024-03-24T06:14:42.598Z,455.00
2024-03-24T06:15:42.616Z,455.00
2024-03-24T06:16:42.615Z,458.00
2024-03-24T06:17:42.648Z,464.00
2024-03-24T06:18:42.655Z,462.00
2024-03-24T06:19:42.666Z,461.00
2024-03-24T06:20:42.698Z,462.00
2024-03-24T06:21:42.720Z,464.00
2024-03-24T06:22:42.735Z,459.00
2024-03-24T06:23:42.733Z,455.00
2024-03-24T06:24:42.745Z,453.00
2024-03-24T06:25:42.755Z,454.00
2024-03-24T06:26:42.785Z,451.00
2024-03-24T06:27:42.761Z,451.00
2024-03-24T06:28:42.787Z,456.00
2024-03-24T06:29:42.795Z,456.00
2024-03-24T06:30:42.802Z,454.00
2024-03-24T06:31:44.637Z,456.00
2024-03-24T06:32:42.813Z,456.00
2024-03-24T06:33:42.814Z,453.00
2024-03-24T06:34:42.814Z,455.00
2024-03-24T06:35:42.836Z,457.00
2024-03-24T06:36:42.835Z,456.00
2024-03-24T06:37:42.848Z,454.00
2024-03-24T06:38:42.858Z,455.00
2024-03-24T06:39:42.864Z,454.00
2024-03-24T06:40:42.855Z,457.00
2024-03-24T06:41:42.873Z,459.00
2024-03-24T06:42:42.877Z,460.00
2024-03-24T06:43:42.887Z,461.00
2024-03-24T06:44:42.890Z,464.00
2024-03-24T06:45:42.891Z,465.00
2024-03-24T06:46:42.916Z,465.00
2024-03-24T06:47:42.932Z,462.00
2024-03-24T06:48:42.960Z,460.00
2024-03-24T06:49:42.959Z,457.00
2024-03-24T06:50:42.970Z,457.00
2024-03-24T06:51:42.994Z,461.00
2024-03-24T06:52:43.004Z,456.00
2024-03-24T06:53:43.005Z,460.00
2024-03-24T06:54:43.013Z,458.00
2024-03-24T06:55:43.009Z,457.00
2024-03-24T06:56:43.032Z,457.00
2024-03-24T06:57:43.029Z,457.00
2024-03-24T06:58:43.074Z,455.00
2024-03-24T06:59:43.091Z,454.00
2024-03-24T07:00:43.054Z,449.00
2024-03-24T07:01:43.109Z,457.00
2024-03-24T07:02:43.125Z,452.00
2024-03-24T07:03:43.157Z,450.00
2024-03-24T07:04:43.167Z,449.00
2024-03-24T07:05:43.163Z,453.00
2024-03-24T07:06:43.209Z,454.00
2024-03-24T07:07:43.189Z,448.00
2024-03-24T07:08:43.226Z,451.00
2024-03-24T07:09:43.220Z,462.00
2024-03-24T07:10:43.250Z,455.00
2024-03-24T07:11:43.214Z,459.00
2024-03-24T07:12:43.279Z,454.00
2024-03-24T07:13:43.287Z,459.00
2024-03-24T07:14:43.297Z,457.00
2024-03-24T07:15:43.304Z,450.00
2024-03-24T07:16:43.305Z,452.00
2024-03-24T07:17:43.366Z,454.00
2024-03-24T07:18:43.367Z,451.00
2024-03-24T07:19:43.398Z,451.00
2024-03-24T07:20:43.403Z,451.00
2024-03-24T07:21:43.402Z,449.00
2024-03-24T07:22:43.461Z,443.00
2024-03-24T07:23:43.433Z,450.00
2024-03-24T07:24:43.460Z,452.00
2024-03-24T07:25:43.467Z,451.00
2024-03-24T07:26:43.501Z,452.00
2024-03-24T07:27:43.499Z,452.00
2024-03-24T07:28:43.544Z,456.00
2024-03-24T07:29:43.571Z,458.00
2024-03-24T07:30:43.572Z,452.00
2024-03-24T07:31:43.621Z,454.00
2024-03-24T07:32:43.635Z,453.00
2024-03-24T07:33:43.684Z,454.00
2024-03-24T07:34:43.716Z,454.00
2024-03-24T07:35:43.726Z,453.00
2024-03-24T07:36:43.787Z,450.00
2024-03-24T07:37:43.835Z,447.00
2024-03-24T07:38:43.936Z,452.00
2024-03-24T07:39:43.977Z,447.00
2024-03-24T07:40:44.060Z,455.00
2024-03-24T07:41:46.167Z,453.00
2024-03-24T07:42:44.783Z,451.00
2024-03-24T07:43:44.123Z,452.00
2024-03-24T07:44:44.089Z,455.00
2024-03-24T07:45:44.120Z,453.00
2024-03-24T07:46:44.119Z,454.00
2024-03-24T07:47:44.153Z,452.00
2024-03-24T07:48:47.413Z,451.00
2024-03-24T07:49:45.123Z,444.00
2024-03-24T07:50:44.127Z,447.00
2024-03-24T07:51:44.149Z,446.00
2024-03-24T07:52:44.114Z,447.00
2024-03-24T07:53:44.167Z,451.00
2024-03-24T07:54:44.139Z,449.00
2024-03-24T07:55:44.148Z,448.00
2024-03-24T07:56:44.166Z,450.00
2024-03-24T07:57:44.177Z,448.00
2024-03-24T07:58:44.252Z,450.00
2024-03-24T07:59:44.328Z,451.00
2024-03-24T08:00:44.386Z,449.00
2024-03-24T08:01:44.473Z,447.00
2024-03-24T08:02:44.570Z,430.00
2024-03-24T08:03:44.618Z,434.00
2024-03-24T08:04:44.691Z,438.00
2024-03-24T08:05:44.780Z,443.00
2024-03-24T08:06:44.862Z,447.00
2024-03-24T08:07:44.947Z,447.00
2024-03-24T08:08:45.075Z,445.00
2024-03-24T08:09:45.120Z,444.00
2024-03-24T08:10:45.230Z,443.00
2024-03-24T08:11:45.278Z,441.00
2024-03-24T08:12:45.318Z,444.00
2024-03-24T08:13:45.393Z,446.00
2024-03-24T08:14:45.393Z,446.00
2024-03-24T08:15:45.479Z,444.00
2024-03-24T08:16:45.546Z,443.00
2024-03-24T08:17:45.618Z,442.00
2024-03-24T08:18:45.673Z,443.00
2024-03-24T08:19:45.732Z,444.00
2024-03-24T08:20:45.819Z,445.00
2024-03-24T08:21:45.880Z,452.00
2024-03-24T08:22:45.931Z,445.00
2024-03-24T08:23:45.963Z,449.00
2024-03-24T08:24:45.992Z,451.00
2024-03-24T08:25:46.015Z,449.00
2024-03-24T08:26:46.047Z,448.00
2024-03-24T08:27:46.075Z,444.00
2024-03-24T08:28:46.108Z,444.00
2024-03-24T08:29:46.203Z,443.00
2024-03-24T08:30:46.252Z,442.00
2024-03-24T08:31:46.322Z,444.00
2024-03-24T08:32:46.368Z,442.00
2024-03-24T08:33:46.437Z,444.00
2024-03-24T08:34:46.448Z,441.00
2024-03-24T08:35:46.499Z,444.00
2024-03-24T08:36:46.544Z,443.00
2024-03-24T08:37:46.547Z,443.00
2024-03-24T08:38:46.646Z,442.00
2024-03-24T08:39:46.668Z,442.00
2024-03-24T08:40:46.668Z,440.00
2024-03-24T08:41:46.689Z,443.00
2024-03-24T08:42:46.730Z,444.00
2024-03-24T08:43:46.775Z,443.00
2024-03-24T08:44:46.839Z,444.00
2024-03-24T08:45:46.908Z,448.00
2024-03-24T08:46:46.954Z,447.00
2024-03-24T08:47:47.005Z,445.00
2024-03-24T08:48:47.366Z,446.00
2024-03-24T08:49:47.066Z,448.00
2024-03-24T08:50:47.071Z,457.00
2024-03-24T08:51:47.153Z,451.00
2024-03-24T08:52:47.248Z,447.00
2024-03-24T08:53:47.560Z,445.00
2024-03-24T08:54:47.332Z,442.00
2024-03-24T08:55:47.375Z,443.00
2024-03-24T08:56:47.402Z,443.00
2024-03-24T08:57:47.392Z,444.00
2024-03-24T08:58:47.418Z,442.00
2024-03-24T08:59:47.464Z,442.00
2024-03-24T09:00:47.505Z,444.00
2024-03-24T09:01:47.535Z,447.00
2024-03-24T09:02:47.529Z,446.00
2024-03-24T09:03:47.535Z,444.00
2024-03-24T09:04:47.569Z,443.00
2024-03-24T09:05:47.739Z,446.00
2024-03-24T09:06:47.762Z,446.00
2024-03-24T09:07:47.814Z,443.00
2024-03-24T09:08:47.864Z,441.00
2024-03-24T09:09:47.940Z,440.00
2024-03-24T09:10:48.003Z,444.00
2024-03-24T09:11:48.076Z,443.00
2024-03-24T09:12:48.117Z,442.00
2024-03-24T09:13:48.211Z,443.00
2024-03-24T09:14:48.249Z,447.00
2024-03-24T09:15:48.256Z,449.00
2024-03-24T09:16:48.292Z,449.00
2024-03-24T09:17:48.288Z,448.00
2024-03-24T09:18:48.294Z,447.00
2024-03-24T09:19:48.361Z,444.00
2024-03-24T09:20:48.352Z,445.00
2024-03-24T09:21:48.362Z,443.00
2024-03-24T09:22:48.402Z,439.00
2024-03-24T09:23:48.449Z,442.00
2024-03-24T09:24:48.544Z,449.00
2024-03-24T09:25:48.641Z,444.00
2024-03-24T09:26:48.726Z,449.00
2024-03-24T09:27:48.789Z,451.00
2024-03-24T09:28:48.868Z,448.00
2024-03-24T09:29:48.935Z,447.00
2024-03-24T09:30:49.021Z,445.00
2024-03-24T09:31:49.105Z,448.00
2024-03-24T09:32:49.170Z,446.00
2024-03-24T09:33:49.213Z,441.00
2024-03-24T09:34:49.649Z,460.00
2024-03-24T09:35:49.280Z,447.00
2024-03-24T09:36:50.227Z,441.00
2024-03-24T09:37:49.388Z,439.00
2024-03-24T09:38:49.455Z,440.00
2024-03-24T09:39:49.513Z,443.00
2024-03-24T09:40:49.571Z,447.00
2024-03-24T09:41:49.599Z,447.00
2024-03-24T09:42:49.710Z,444.00
2024-03-24T09:43:49.762Z,442.00
2024-03-24T09:44:49.761Z,443.00
2024-03-24T09:45:49.774Z,444.00
2024-03-24T09:46:49.836Z,446.00
2024-03-24T09:47:49.929Z,451.00
2024-03-24T09:48:49.997Z,451.00
2024-03-24T09:49:50.047Z,451.00
2024-03-24T09:50:50.077Z,457.00
2024-03-24T09:51:50.129Z,457.00
2024-03-24T09:52:50.179Z,456.00
2024-03-24T09:53:50.238Z,456.00
2024-03-24T09:54:50.286Z,453.00
2024-03-24T09:55:50.292Z,446.00
2024-03-24T09:56:50.402Z,449.00
2024-03-24T09:57:57.052Z,447.00
2024-03-24T09:58:51.451Z,454.00
2024-03-24T09:59:50.482Z,450.00
2024-03-24T10:00:50.465Z,450.00
2024-03-24T10:01:50.485Z,443.00
2024-03-24T10:02:50.486Z,443.00
2024-03-24T10:03:50.518Z,448.00
2024-03-24T10:04:50.516Z,471.00
2024-03-24T10:05:50.516Z,453.00
2024-03-24T10:06:50.533Z,450.00
2024-03-24T10:07:50.596Z,453.00
2024-03-24T10:08:50.680Z,450.00
2024-03-24T10:09:50.611Z,449.00
2024-03-24T10:10:50.656Z,452.00
2024-03-24T10:11:50.668Z,453.00
2024-03-24T10:12:50.672Z,439.00
2024-03-24T10:13:50.683Z,442.00
2024-03-24T10:14:50.732Z,447.00
2024-03-24T10:15:50.754Z,442.00
2024-03-24T10:16:50.762Z,441.00
2024-03-24T10:17:50.829Z,449.00
2024-03-24T10:18:50.891Z,452.00
2024-03-24T10:19:50.978Z,450.00
2024-03-24T10:20:50.961Z,453.00
2024-03-24T10:21:51.039Z,448.00
2024-03-24T10:22:51.094Z,462.00
2024-03-24T10:23:51.128Z,454.00
2024-03-24T10:24:51.182Z,457.00
2024-03-24T10:25:51.231Z,457.00
2024-03-24T10:26:51.287Z,455.00
2024-03-24T10:27:51.319Z,445.00
2024-03-24T10:28:51.355Z,447.00
2024-03-24T10:29:51.380Z,451.00
2024-03-24T10:30:51.379Z,448.00
2024-03-24T10:31:53.245Z,450.00
2024-03-24T10:32:51.444Z,450.00
2024-03-24T10:33:51.450Z,449.00
2024-03-24T10:34:51.462Z,446.00
2024-03-24T10:35:51.480Z,445.00
2024-03-24T10:36:51.507Z,445.00
2024-03-24T10:37:51.570Z,442.00
2024-03-24T10:38:51.594Z,451.00
2024-03-24T10:39:51.692Z,451.00
2024-03-24T10:40:54.929Z,448.00
2024-03-24T10:41:51.705Z,444.00
2024-03-24T10:42:51.674Z,449.00
2024-03-24T10:43:51.696Z,450.00
2024-03-24T10:44:51.688Z,448.00
2024-03-24T10:45:51.685Z,450.00
2024-03-24T10:46:51.659Z,447.00
2024-03-24T10:47:51.633Z,448.00
2024-03-24T10:48:51.639Z,451.00
2024-03-24T10:49:51.624Z,451.00
2024-03-24T10:50:51.601Z,451.00
2024-03-24T10:51:51.626Z,443.00
2024-03-24T10:52:53.667Z,439.00
2024-03-24T10:53:51.574Z,437.00
2024-03-24T10:54:51.584Z,445.00
2024-03-24T10:55:51.595Z,438.00
2024-03-24T10:56:51.553Z,437.00
2024-03-24T10:57:51.555Z,460.00
2024-03-24T10:58:51.511Z,455.00
2024-03-24T10:59:51.531Z,450.00
2024-03-24T11:00:51.472Z,444.00
2024-03-24T11:01:51.481Z,441.00
2024-03-24T11:02:51.462Z,439.00
2024-03-24T11:03:51.442Z,441.00
2024-03-24T11:04:51.458Z,441.00
2024-03-24T11:05:51.410Z,445.00
2024-03-24T11:06:51.398Z,444.00
2024-03-24T11:07:51.379Z,445.00
2024-03-24T11:08:51.320Z,462.00
2024-03-24T11:09:51.334Z,446.00
2024-03-24T11:10:51.309Z,451.00
2024-03-24T11:11:51.294Z,441.00
2024-03-24T11:12:51.310Z,452.00
2024-03-24T11:13:51.278Z,443.00
2024-03-24T11:14:51.244Z,452.00
2024-03-24T11:15:51.218Z,448.00
2024-03-24T11:16:51.160Z,447.00
2024-03-24T11:17:51.170Z,444.00
2024-03-24T11:18:52.669Z,440.00
2024-03-24T11:19:51.096Z,445.00
2024-03-24T11:20:51.058Z,448.00
2024-03-24T11:21:51.003Z,451.00
2024-03-24T11:22:50.958Z,441.00
2024-03-24T11:23:50.917Z,433.00
2024-03-24T11:24:50.877Z,434.00
2024-03-24T11:25:50.826Z,439.00
2024-03-24T11:26:50.784Z,442.00
2024-03-24T11:27:50.688Z,444.00
2024-03-24T11:28:50.651Z,435.00
2024-03-24T11:29:52.568Z,441.00
2024-03-24T11:30:50.529Z,454.00
2024-03-24T11:31:50.464Z,441.00
2024-03-24T11:32:50.396Z,451.00
2024-03-24T11:33:50.333Z,443.00
2024-03-24T11:34:50.349Z,440.00
2024-03-24T11:35:50.232Z,443.00
2024-03-24T11:36:50.168Z,439.00
2024-03-24T11:37:50.077Z,444.00
2024-03-24T11:38:50.051Z,444.00
2024-03-24T11:39:49.992Z,437.00
2024-03-24T11:40:53.038Z,436.00
2024-03-24T11:41:49.869Z,440.00
2024-03-24T11:42:49.783Z,441.00
2024-03-24T11:43:49.721Z,448.00
2024-03-24T11:44:49.713Z,443.00
2024-03-24T11:45:49.633Z,436.00
2024-03-24T11:46:49.575Z,434.00
2024-03-24T11:47:49.493Z,440.00
2024-03-24T11:48:49.446Z,440.00
2024-03-24T11:49:49.484Z,452.00
2024-03-24T11:50:49.277Z,452.00
2024-03-24T11:51:49.227Z,440.00
2024-03-24T11:52:52.483Z,439.00
2024-03-24T11:53:49.075Z,440.00
2024-03-24T11:54:48.973Z,484.00
2024-03-24T11:55:49.012Z,439.00
2024-03-24T11:56:48.838Z,405.00
2024-03-24T11:57:48.791Z,432.00
2024-03-24T11:58:48.715Z,451.00
2024-03-24T11:59:48.656Z,427.00
2024-03-24T12:00:48.619Z,447.00
2024-03-24T12:01:48.513Z,423.00
2024-03-24T12:02:48.421Z,448.00
2024-03-24T12:03:48.363Z,432.00
2024-03-24T12:04:48.258Z,446.00
2024-03-24T12:05:48.194Z,443.00
2024-03-24T12:06:48.127Z,465.00
2024-03-24T12:07:48.045Z,448.00
2024-03-24T12:08:47.986Z,426.00
2024-03-24T12:09:47.889Z,428.00
2024-03-24T12:10:47.832Z,446.00
2024-03-24T12:11:47.734Z,475.00
2024-03-24T12:12:47.661Z,440.00
2024-03-24T12:13:47.596Z,443.00
2024-03-24T12:14:47.506Z,442.00
2024-03-24T12:15:47.440Z,449.00
2024-03-24T12:16:47.343Z,433.00
2024-03-24T12:17:47.253Z,437.00
2024-03-24T12:18:47.152Z,439.00
2024-03-24T12:19:47.091Z,441.00
2024-03-24T12:20:46.984Z,439.00
2024-03-24T12:21:46.905Z,442.00
2024-03-24T12:22:46.785Z,447.00
2024-03-24T12:23:46.708Z,453.00
2024-03-24T12:24:46.631Z,432.00
2024-03-24T12:25:46.509Z,433.00
2024-03-24T12:26:46.412Z,427.00
2024-03-24T12:27:46.319Z,438.00
2024-03-24T12:28:46.222Z,432.00
2024-03-24T12:29:46.116Z,434.00